Time;durP1;ratioP1;P1;durP2;ratioP2;P2;SDS_P1;SDS_P2;PMS_P1;PMS_P2;Temp;Humidity;BMP_temperature;BMP_pressure;BME280_temperature;BME280_humidity;BME280_pressure;Samples;Min_cycle;Max_cycle;Signal;HPM_P1;HPM_P2
2022/08/25 00:01:19;;;;;;;8.60;3.50;;;;;;;24.83;34.99;100274.23;117343;1185;22696;-62
2022/08/25 00:03:46;;;;;;;6.90;3.90;;;;;;;24.78;35.04;100280.08;117336;1186;24177;-68
2022/08/25 00:06:14;;;;;;;10.70;4.20;;;;;;;24.76;35.12;100276.88;117351;1185;22646;-62
2022/08/25 00:08:41;;;;;;;9.60;3.90;;;;;;;24.73;35.19;100275.81;117316;1185;22622;-68
2022/08/25 00:11:14;;;;;;;11.40;4.50;;;;;;;24.70;35.23;100278.01;117308;1185;21958;-62
2022/08/25 00:13:42;;;;;;;9.70;4.00;;;;;;;24.67;35.18;100275.16;117315;1185;23478;-62
2022/08/25 00:16:15;;;;;;;7.40;4.00;;;;;;;24.63;35.23;100272.91;117335;1186;22619;-68
2022/08/25 00:18:44;;;;;;;9.70;4.10;;;;;;;24.60;35.35;100273.33;117285;1183;23545;-62
2022/08/25 00:21:12;;;;;;;7.50;4.10;;;;;;;24.55;35.34;100275.81;117657;1180;22928;-68
2022/08/25 00:23:40;;;;;;;8.60;3.60;;;;;;;24.53;35.45;100276.02;117307;1189;22913;-68
2022/08/25 00:26:07;;;;;;;8.20;3.80;;;;;;;24.50;35.35;100276.20;117320;1185;22625;-68
2022/08/25 00:28:35;;;;;;;7.30;4.20;;;;;;;24.47;35.44;100277.10;117307;1185;22697;-68
2022/08/25 00:31:02;;;;;;;10.20;3.70;;;;;;;24.43;35.28;100274.71;117264;1183;22805;-69
2022/08/25 00:33:30;;;;;;;8.70;4.20;;;;;;;24.39;35.50;100272.15;117349;1186;23454;-69
2022/08/25 00:35:58;;;;;;;9.70;4.50;;;;;;;24.37;35.38;100266.19;117321;1185;21858;-68
2022/08/25 00:38:25;;;;;;;11.50;5.00;;;;;;;24.34;35.38;100264.92;117376;1183;23650;-62
2022/08/25 00:41:05;;;;;;;12.40;4.00;;;;;;;24.31;35.47;100261.38;117304;1189;23558;-62
2022/08/25 00:44:00;;;;;;;7.90;4.10;;;;;;;24.28;35.38;100259.63;117226;1186;23138;-68
2022/08/25 00:46:33;;;;;;;8.60;4.00;;;;;;;24.26;35.35;100256.79;117195;1186;22986;-69
2022/08/25 00:49:04;;;;;;;12.20;3.40;;;;;;;24.25;35.46;100257.41;117259;1188;21852;-62
2022/08/25 00:51:50;;;;;;;10.30;3.80;;;;;;;24.25;35.28;100259.34;117358;1186;22964;-68
2022/08/25 00:54:26;;;;;;;7.70;3.70;;;;;;;24.24;35.37;100257.65;117339;1186;22999;-63
2022/08/25 00:56:55;;;;;;;8.40;3.70;;;;;;;24.23;35.37;100255.73;117061;1185;22710;-62
2022/08/25 00:59:22;;;;;;;11.40;3.20;;;;;;;24.22;35.31;100254.33;117284;1185;23497;-62
2022/08/25 01:01:50;;;;;;;5.00;3.20;;;;;;;24.23;35.24;100254.10;117328;1185;24218;-68
2022/08/25 01:04:17;;;;;;;8.00;3.40;;;;;;;24.25;35.27;100253.11;117373;1186;22163;-62
2022/08/25 01:06:44;;;;;;;9.90;3.50;;;;;;;24.26;35.28;100252.30;117298;1186;23439;-68
2022/08/25 01:09:13;;;;;;;9.10;3.20;;;;;;;24.28;35.37;100256.60;116971;1188;21842;-68
2022/08/25 01:11:41;;;;;;;8.80;3.00;;;;;;;24.31;35.09;100252.83;117187;1185;21872;-62
2022/08/25 01:14:08;;;;;;;10.70;3.70;;;;;;;24.33;34.95;100253.87;117339;1186;21861;-68
2022/08/25 01:16:36;;;;;;;10.90;3.10;;;;;;;24.37;35.03;100251.13;117088;1185;23576;-68
2022/08/25 01:19:03;;;;;;;9.40;3.50;;;;;;;24.40;35.02;100253.26;117305;1183;23644;-62
2022/08/25 01:21:31;;;;;;;8.00;2.70;;;;;;;24.43;35.05;100252.70;117299;1185;23137;-68
2022/08/25 01:23:59;;;;;;;11.30;3.40;;;;;;;24.45;34.96;100249.66;117101;1186;21867;-68
2022/08/25 01:26:29;;;;;;;13.40;4.00;;;;;;;24.46;34.90;100249.18;117287;1186;22989;-62
2022/08/25 01:31:44;;;;;;;7.70;2.80;;;;;;;24.51;34.77;100251.36;117318;1186;24206;-67
2022/08/25 01:34:11;;;;;;;10.30;3.10;;;;;;;24.53;34.77;100250.67;117262;1188;22976;-69
2022/08/25 01:36:39;;;;;;;9.70;4.10;;;;;;;24.55;34.82;100251.96;117210;1183;23540;-68
2022/08/25 01:39:06;;;;;;;8.80;3.50;;;;;;;24.56;34.81;100251.56;117282;1186;22972;-67
2022/08/25 01:41:33;;;;;;;19.10;3.00;;;;;;;24.58;34.48;100253.94;117273;1185;22621;-68
2022/08/25 01:44:01;;;;;;;17.30;3.60;;;;;;;24.58;34.46;100254.61;117278;1183;23566;-69
2022/08/25 01:46:28;;;;;;;7.10;2.60;;;;;;;24.59;34.53;100255.63;117403;1189;21907;-69
2022/08/25 01:48:55;;;;;;;8.60;3.00;;;;;;;24.59;34.55;100257.20;117249;1185;21889;-62
2022/08/25 01:51:24;;;;;;;9.00;3.30;;;;;;;24.59;34.60;100260.30;117350;1183;22819;-62
2022/08/25 01:53:51;;;;;;;6.70;2.60;;;;;;;24.59;34.58;100261.00;117307;1185;23544;-63
2022/08/25 01:56:18;;;;;;;8.40;3.20;;;;;;;24.59;34.66;100267.11;117347;1186;21880;-68
2022/08/25 01:58:46;;;;;;;7.60;2.50;;;;;;;24.58;34.60;100270.25;117353;1185;23823;-69
2022/08/25 02:01:18;;;;;;;9.50;2.60;;;;;;;24.57;34.67;100269.78;117438;1186;23547;-62
2022/08/25 02:03:47;;;;;;;11.40;2.80;;;;;;;24.57;34.58;100266.88;117295;1184;22996;-68
2022/08/25 02:06:17;;;;;;;7.20;3.00;;;;;;;24.57;34.60;100268.00;117423;1185;22911;-68
2022/08/25 02:08:44;;;;;;;6.50;2.80;;;;;;;24.57;34.61;100263.36;117323;1185;22462;-62
2022/08/25 02:11:12;;;;;;;9.50;2.90;;;;;;;24.58;34.53;100268.83;117323;1186;23539;-68
2022/08/25 02:13:40;;;;;;;18.20;3.70;;;;;;;24.58;34.44;100268.62;117434;1186;21857;-62
2022/08/25 02:16:08;;;;;;;8.40;2.70;;;;;;;24.59;34.37;100264.27;117350;1182;23592;-70
2022/08/25 02:18:36;;;;;;;9.50;2.70;;;;;;;24.60;34.42;100262.77;117306;1184;21940;-62
2022/08/25 02:21:03;;;;;;;9.30;3.70;;;;;;;24.61;34.30;100264.08;117356;1183;24142;-70
2022/08/25 02:23:30;;;;;;;9.20;2.80;;;;;;;24.62;34.28;100264.37;117351;1185;23595;-69
2022/08/25 02:25:57;;;;;;;11.80;2.70;;;;;;;24.63;34.38;100266.06;117343;1185;21857;-62
2022/08/25 02:28:24;;;;;;;8.70;3.40;;;;;;;24.65;34.15;100265.22;117271;1186;23554;-62
2022/08/25 02:30:52;;;;;;;9.60;3.30;;;;;;;24.67;34.08;100265.45;117322;1186;22924;-70
2022/08/25 02:33:27;;;;;;;12.40;2.70;;;;;;;24.68;34.09;100262.14;117361;1184;21892;-62
2022/08/25 02:36:01;;;;;;;11.70;3.50;;;;;;;24.69;34.04;100257.63;117430;1182;21956;-62
2022/08/25 02:38:28;;;;;;;5.80;2.90;;;;;;;24.65;33.95;100259.89;117238;1180;22956;-69
2022/08/25 02:40:57;;;;;;;7.90;3.10;;;;;;;24.62;33.96;100261.48;117304;1186;23705;-70
2022/08/25 02:43:25;;;;;;;8.60;3.40;;;;;;;24.62;33.83;100260.41;117350;1186;21845;-62
2022/08/25 02:45:52;;;;;;;7.40;2.70;;;;;;;24.63;33.99;100260.70;117139;1187;22813;-69
2022/08/25 02:48:20;;;;;;;11.50;3.20;;;;;;;24.64;33.81;100260.85;117300;1185;22925;-68
2022/08/25 02:50:48;;;;;;;8.40;2.90;;;;;;;24.63;33.74;100262.89;117255;1185;22864;-69
2022/08/25 02:53:16;;;;;;;11.10;3.50;;;;;;;24.63;33.79;100265.19;117336;1185;22181;-62
2022/08/25 02:55:44;;;;;;;10.10;3.00;;;;;;;24.63;33.83;100270.23;117349;1186;24274;-69
2022/08/25 02:58:10;;;;;;;11.70;3.10;;;;;;;24.61;33.81;100269.98;117086;1187;22620;-69
2022/08/25 03:00:37;;;;;;;15.50;4.20;;;;;;;24.62;33.78;100272.63;117261;1186;22916;-62
2022/08/25 03:03:05;;;;;;;9.00;2.80;;;;;;;24.61;33.81;100275.76;117110;1187;23007;-61
2022/08/25 03:05:33;;;;;;;7.90;2.80;;;;;;;24.60;33.82;100273.13;117251;1186;22652;-62
2022/08/25 03:08:00;;;;;;;13.10;3.10;;;;;;;24.59;33.69;100270.70;117265;1182;22715;-61
2022/08/25 03:10:27;;;;;;;13.00;3.10;;;;;;;24.59;33.74;100273.73;117296;1186;21897;-69
2022/08/25 03:12:54;;;;;;;11.80;3.00;;;;;;;24.59;33.64;100275.86;117298;1185;21878;-62
2022/08/25 03:15:24;;;;;;;12.70;3.60;;;;;;;24.59;33.59;100276.77;117282;1185;23718;-62
2022/08/25 03:17:52;;;;;;;15.20;3.80;;;;;;;24.59;33.55;100275.17;117335;1183;23457;-62
2022/08/25 03:20:21;;;;;;;13.40;4.00;;;;;;;24.59;33.65;100278.77;117290;1187;21873;-68
2022/08/25 03:22:48;;;;;;;49.30;6.00;;;;;;;24.62;33.61;100286.08;117122;1182;23466;-61
2022/08/25 03:28:01;;;;;;;8.40;2.80;;;;;;;24.58;33.60;100293.23;117366;1186;21857;-62
2022/08/25 03:30:29;;;;;;;12.30;3.20;;;;;;;24.59;33.36;100292.96;117202;1183;21845;-62
2022/08/25 03:32:56;;;;;;;11.00;3.30;;;;;;;24.59;33.42;100294.19;117314;1186;23622;-69
2022/08/25 03:35:23;;;;;;;10.90;3.00;;;;;;;24.59;33.57;100297.06;117274;1182;22901;-68
2022/08/25 03:37:55;;;;;;;11.50;2.90;;;;;;;24.59;33.55;100294.97;117280;1185;22623;-68
2022/08/25 03:40:22;;;;;;;6.30;3.00;;;;;;;24.58;33.56;100296.03;117365;1186;22677;-68
2022/08/25 03:42:50;;;;;;;7.40;3.00;;;;;;;24.58;33.58;100296.42;117256;1181;21857;-63
2022/08/25 03:45:18;;;;;;;8.70;3.00;;;;;;;24.57;33.58;100293.07;117343;1186;21908;-62
2022/08/25 03:47:46;;;;;;;7.40;2.70;;;;;;;24.58;33.75;100296.40;117262;1185;22648;-62
2022/08/25 03:50:14;;;;;;;8.30;2.50;;;;;;;24.60;33.62;100295.88;117289;1186;21899;-62
2022/08/25 03:52:41;;;;;;;8.20;2.70;;;;;;;24.61;33.73;100296.74;117279;1185;23595;-68
2022/08/25 03:55:10;;;;;;;15.90;3.40;;;;;;;24.63;33.66;100296.27;117244;1185;22617;-62
2022/08/25 03:57:38;;;;;;;8.00;2.60;;;;;;;24.64;33.79;100293.11;117336;1186;21845;-62
2022/08/25 04:00:08;;;;;;;7.10;3.30;;;;;;;24.67;33.75;100290.25;117263;1185;21863;-62
2022/08/25 04:02:34;;;;;;;6.20;2.60;;;;;;;24.69;33.72;100288.14;117291;1186;23451;-69
2022/08/25 04:05:02;;;;;;;7.90;3.00;;;;;;;24.70;33.60;100288.42;117231;1183;21874;-69
2022/08/25 04:07:29;;;;;;;8.50;2.70;;;;;;;24.72;33.73;100288.64;117152;1186;21852;-69
2022/08/25 04:09:57;;;;;;;8.60;2.80;;;;;;;24.74;33.71;100288.13;117217;1186;22812;-68
2022/08/25 04:12:24;;;;;;;7.40;2.40;;;;;;;24.75;33.82;100291.94;117268;1186;22630;-62
2022/08/25 04:14:51;;;;;;;9.10;2.80;;;;;;;24.78;33.75;100290.49;117110;1186;22657;-68
2022/08/25 04:17:18;;;;;;;16.90;3.40;;;;;;;24.81;33.77;100288.46;117323;1186;23585;-68
2022/08/25 04:19:45;;;;;;;12.70;2.60;;;;;;;24.85;33.83;100284.96;117239;1186;21861;-63
2022/08/25 04:22:12;;;;;;;9.50;3.10;;;;;;;24.89;33.87;100283.07;117509;1183;24162;-62
2022/08/25 04:24:40;;;;;;;12.40;2.80;;;;;;;24.91;33.82;100280.57;117286;1186;23547;-63
2022/08/25 04:27:07;;;;;;;10.30;2.70;;;;;;;24.94;33.71;100279.63;117284;1186;23587;-68
2022/08/25 04:29:34;;;;;;;10.50;2.70;;;;;;;25.00;33.82;100281.70;117233;1186;21858;-62
2022/08/25 04:32:02;;;;;;;6.60;2.60;;;;;;;25.03;33.89;100283.33;117263;1189;23629;-62
2022/08/25 04:34:30;;;;;;;11.80;3.70;;;;;;;25.06;33.80;100280.20;117837;1182;22929;-62
2022/08/25 04:37:01;;;;;;;11.00;3.30;;;;;;;25.09;33.92;100280.31;117227;1186;23660;-68
2022/08/25 04:39:29;;;;;;;8.10;2.70;;;;;;;25.15;33.92;100281.02;117513;1186;22521;-62
2022/08/25 04:41:59;;;;;;;18.70;9.50;;;;;;;25.20;33.91;100276.64;117247;1180;22986;-62
2022/08/25 04:44:28;;;;;;;16.00;8.10;;;;;;;25.26;33.82;100274.58;117237;1185;22082;-62
2022/08/25 04:46:55;;;;;;;12.10;3.50;;;;;;;25.34;33.91;100271.13;117244;1186;22623;-62
2022/08/25 04:49:22;;;;;;;11.50;3.30;;;;;;;25.41;33.77;100270.91;117186;1185;21867;-62
2022/08/25 04:51:48;;;;;;;10.00;3.10;;;;;;;25.47;33.89;100269.08;117127;1186;22722;-69
2022/08/25 04:54:20;;;;;;;10.10;2.80;;;;;;;25.51;33.87;100269.10;117198;1188;23553;-68
2022/08/25 04:56:50;;;;;;;8.30;3.00;;;;;;;25.57;33.84;100265.06;117356;1185;21846;-69
2022/08/25 04:59:20;;;;;;;13.20;3.00;;;;;;;25.65;33.82;100262.86;117289;1186;22929;-62
2022/08/25 05:01:47;;;;;;;10.20;2.90;;;;;;;25.72;33.80;100263.56;117274;1186;21919;-62
2022/08/25 05:04:20;;;;;;;13.40;2.70;;;;;;;25.79;33.93;100261.04;117321;1186;22095;-62
2022/08/25 05:06:55;;;;;;;8.60;2.80;;;;;;;25.89;33.94;100257.80;117256;1186;21961;-62
2022/08/25 05:09:22;;;;;;;12.00;2.70;;;;;;;25.97;33.85;100256.76;117247;1183;22926;-68
2022/08/25 05:11:53;;;;;;;15.60;2.80;;;;;;;26.04;33.76;100255.65;117300;1185;21857;-69
2022/08/25 05:14:22;;;;;;;11.90;2.90;;;;;;;26.09;33.58;100248.24;117065;1185;23570;-61
2022/08/25 05:16:53;;;;;;;8.70;2.70;;;;;;;26.15;33.50;100246.38;117327;1183;24309;-68
2022/08/25 05:19:22;;;;;;;17.00;2.70;;;;;;;26.21;33.48;100241.10;117267;1183;21864;-69
2022/08/25 05:21:50;;;;;;;14.20;3.30;;;;;;;26.28;33.56;100243.05;117217;1186;21855;-67
2022/08/25 05:24:18;;;;;;;17.10;2.80;;;;;;;26.37;33.60;100241.07;117277;1183;21837;-61
2022/08/25 05:26:45;;;;;;;9.00;3.10;;;;;;;26.42;33.33;100239.52;116942;1186;22641;-69
2022/08/25 05:29:14;;;;;;;14.30;3.80;;;;;;;26.46;33.29;100235.14;117267;1187;21826;-71
2022/08/25 05:31:43;;;;;;;7.90;2.60;;;;;;;26.51;33.47;100237.89;117123;1188;21847;-69
2022/08/25 05:34:17;;;;;;;11.60;3.60;;;;;;;26.62;33.39;100238.65;117172;1186;21859;-62
2022/08/25 05:36:45;;;;;;;12.70;2.80;;;;;;;26.74;33.40;100237.52;117228;1185;21853;-62
2022/08/25 05:39:12;;;;;;;8.10;2.60;;;;;;;26.82;33.18;100234.89;117377;1183;23249;-68
2022/08/25 05:41:40;;;;;;;12.00;2.90;;;;;;;26.91;33.22;100235.21;117200;1181;22814;-61
2022/08/25 05:44:08;;;;;;;8.30;2.60;;;;;;;27.01;33.05;100235.67;117003;1186;23317;-62
2022/08/25 05:46:35;;;;;;;12.20;3.00;;;;;;;27.08;33.15;100234.91;117403;1182;22782;-62
2022/08/25 05:49:03;;;;;;;13.30;3.40;;;;;;;27.16;33.15;100237.67;117361;1186;22745;-67
2022/08/25 05:51:30;;;;;;;8.30;3.00;;;;;;;27.26;33.25;100238.60;117151;1186;21855;-68
2022/08/25 05:53:57;;;;;;;10.80;3.10;;;;;;;27.36;33.14;100234.01;117152;1183;22699;-62
2022/08/25 05:56:24;;;;;;;10.80;3.00;;;;;;;27.44;33.15;100236.12;117281;1186;22730;-67
2022/08/25 05:58:52;;;;;;;13.70;2.70;;;;;;;27.56;33.03;100236.28;117318;1183;22944;-69
2022/08/25 06:04:16;;;;;;;17.30;3.60;;;;;;;27.78;32.91;100236.72;117121;1185;21864;-69
2022/08/25 06:06:43;;;;;;;17.40;3.20;;;;;;;27.93;32.93;100239.40;117272;1186;21888;-67
2022/08/25 06:09:11;;;;;;;14.80;3.00;;;;;;;28.09;32.79;100234.78;117176;1184;21886;-69
2022/08/25 06:11:38;;;;;;;12.10;3.20;;;;;;;28.22;32.71;100234.15;117171;1186;22947;-69
2022/08/25 06:14:09;;;;;;;17.80;3.90;;;;;;;28.33;32.64;100232.77;117234;1186;21858;-68
2022/08/25 06:16:37;;;;;;;14.30;3.40;;;;;;;28.47;32.63;100234.47;117220;1185;22613;-69
2022/08/25 06:19:09;;;;;;;19.70;3.50;;;;;;;28.60;32.63;100232.52;117310;1185;22109;-70
2022/08/25 06:21:40;;;;;;;20.00;3.60;;;;;;;28.75;32.42;100229.96;117230;1186;23002;-70
2022/08/25 06:24:08;;;;;;;18.20;5.10;;;;;;;28.90;32.50;100230.29;117177;1186;22081;-71
2022/08/25 06:26:41;;;;;;;19.80;6.50;;;;;;;29.08;32.36;100232.36;117257;1185;22441;-62
2022/08/25 06:29:09;;;;;;;16.90;5.30;;;;;;;29.24;32.11;100233.04;117293;1182;23451;-69
2022/08/25 06:31:36;;;;;;;18.30;4.70;;;;;;;29.36;31.98;100235.17;117178;1188;22968;-62
2022/08/25 06:34:03;;;;;;;13.30;3.60;;;;;;;29.49;31.88;100236.91;117104;1189;23440;-62
2022/08/25 06:36:30;;;;;;;9.40;2.90;;;;;;;29.62;31.86;100236.05;117319;1183;23568;-63
2022/08/25 06:38:57;;;;;;;15.80;3.40;;;;;;;29.75;32.11;100231.23;117303;1186;21859;-69
2022/08/25 06:41:24;;;;;;;11.60;3.40;;;;;;;29.85;32.11;100237.30;117233;1185;22926;-70
2022/08/25 06:44:04;;;;;;;17.00;4.00;;;;;;;29.97;32.01;100231.30;117385;1186;22953;-62
2022/08/25 06:46:31;;;;;;;20.50;3.70;;;;;;;30.16;31.66;100227.32;117232;1182;24277;-62
2022/08/25 06:49:06;;;;;;;21.60;3.90;;;;;;;30.32;31.53;100224.15;117193;1186;21903;-71
2022/08/25 06:51:36;;;;;;;14.80;3.70;;;;;;;30.50;31.52;100219.10;117298;1185;22928;-71
2022/08/25 06:54:05;;;;;;;21.70;3.60;;;;;;;30.70;31.45;100218.21;117196;1183;23909;-71
2022/08/25 06:56:32;;;;;;;14.50;3.90;;;;;;;30.87;31.61;100214.56;117930;1183;22927;-63
2022/08/25 06:59:03;;;;;;;15.90;4.30;;;;;;;31.06;31.17;100216.09;118747;1182;24231;-72
2022/08/25 07:01:31;;;;;;;20.20;3.80;;;;;;;31.26;31.13;100214.80;117195;1183;23597;-71
2022/08/25 07:04:00;;;;;;;20.20;3.50;;;;;;;31.48;31.11;100212.88;117190;1187;21896;-63
2022/08/25 07:06:30;;;;;;;25.10;4.50;;;;;;;31.71;30.95;100218.52;117218;1187;22944;-70
2022/08/25 07:08:57;;;;;;;21.70;4.00;;;;;;;31.92;30.72;100219.77;117266;1186;22972;-73
2022/08/25 07:11:25;;;;;;;20.20;3.80;;;;;;;32.10;30.63;100216.61;117039;1189;24274;-63
2022/08/25 07:13:52;;;;;;;21.90;4.10;;;;;;;32.32;30.57;100213.44;117303;1183;23663;-63
2022/08/25 07:16:20;;;;;;;18.50;4.00;;;;;;;32.51;30.36;100209.23;117283;1182;23580;-69
2022/08/25 07:18:49;;;;;;;16.60;4.10;;;;;;;32.67;30.12;100211.17;117091;1189;21909;-67
2022/08/25 07:21:16;;;;;;;22.00;5.10;;;;;;;32.80;29.91;100207.96;117265;1186;21857;-70
2022/08/25 07:23:51;;;;;;;17.50;4.10;;;;;;;32.81;29.55;100209.29;117277;1185;21858;-63
2022/08/25 07:26:21;;;;;;;17.70;4.30;;;;;;;32.80;29.94;100208.67;117259;1183;22335;-70
2022/08/25 07:29:08;;;;;;;20.10;3.90;;;;;;;32.87;29.64;100205.88;117320;1186;22904;-63
2022/08/25 07:31:35;;;;;;;18.00;4.90;;;;;;;32.92;29.66;100202.20;117304;1185;21857;-63
2022/08/25 07:36:51;;;;;;;21.00;4.10;;;;;;;33.26;29.68;100201.82;117247;1186;21859;-63
2022/08/25 07:39:18;;;;;;;21.90;4.40;;;;;;;33.42;29.33;100200.42;117318;1185;22924;-71
2022/08/25 07:41:48;;;;;;;24.60;4.50;;;;;;;33.50;28.91;100202.60;117243;1185;23480;-64
2022/08/25 07:44:18;;;;;;;;;;;;;;;33.57;29.04;100198.59;117353;1186;23592;-64
2022/08/25 07:46:47;;;;;;;20.20;4.80;;;;;;;33.68;28.79;100196.08;117198;1186;22945;-63
2022/08/25 07:49:19;;;;;;;15.80;4.30;;;;;;;33.77;28.81;100194.30;117135;1187;24175;-64
2022/08/25 07:51:50;;;;;;;22.40;4.90;;;;;;;33.82;28.63;100189.16;117259;1186;21855;-63
2022/08/25 07:54:33;;;;;;;24.50;5.10;;;;;;;33.89;28.81;100185.88;117137;1186;21849;-71
2022/08/25 07:57:02;;;;;;;22.00;4.40;;;;;;;34.02;28.74;100184.17;117263;1182;22954;-63
2022/08/25 07:59:30;;;;;;;27.60;4.40;;;;;;;34.16;28.72;100176.92;117250;1186;22953;-64
2022/08/25 08:02:07;;;;;;;17.10;4.30;;;;;;;34.29;28.16;100172.70;117247;1186;21864;-71
2022/08/25 08:04:47;;;;;;;15.90;4.40;;;;;;;34.41;28.39;100171.17;117240;1185;22109;-64
2022/08/25 08:07:17;;;;;;;25.50;5.60;;;;;;;34.57;28.24;100165.80;117329;1183;22940;-65
2022/08/25 08:09:45;;;;;;;26.50;4.80;;;;;;;34.74;27.82;100159.35;117252;1183;23497;-71
2022/08/25 08:12:17;;;;;;;23.80;4.40;;;;;;;34.84;27.78;100156.88;117276;1185;22956;-70
2022/08/25 08:14:45;;;;;;;16.90;3.80;;;;;;;35.00;27.85;100154.58;117260;1182;22936;-72
2022/08/25 08:17:13;;;;;;;18.00;4.30;;;;;;;35.15;27.94;100153.05;117296;1182;22934;-64
2022/08/25 08:19:41;;;;;;;19.00;3.90;;;;;;;35.29;27.72;100148.35;117265;1182;21940;-64
2022/08/25 08:22:13;;;;;;;14.80;4.00;;;;;;;35.44;27.68;100150.60;117239;1186;23489;-72
2022/08/25 08:24:43;;;;;;;30.30;5.30;;;;;;;35.67;27.23;100148.73;117165;1188;22927;-72
2022/08/25 08:27:22;;;;;;;17.50;4.30;;;;;;;35.77;26.57;100146.84;117243;1185;21963;-72
2022/08/25 08:29:51;;;;;;;20.00;4.70;;;;;;;35.73;26.64;100148.67;117327;1186;22909;-64
2022/08/25 08:32:18;;;;;;;24.80;4.40;;;;;;;35.73;26.41;100144.90;117207;1186;21843;-72
2022/08/25 08:34:51;;;;;;;17.00;3.40;;;;;;;35.78;26.71;100136.23;117182;1186;21853;-71
2022/08/25 08:37:18;;;;;;;19.50;4.70;;;;;;;35.99;26.90;100133.11;117177;1188;23579;-64
2022/08/25 08:39:49;;;;;;;19.90;3.50;;;;;;;36.34;26.31;100136.80;117256;1185;21847;-72
2022/08/25 08:43:03;;;;;;;17.50;3.70;;;;;;;36.51;25.93;100130.75;117222;1185;21857;-66
2022/08/25 08:45:51;;;;;;;16.50;3.90;;;;;;;36.61;25.70;100131.96;116796;1191;22040;-71
2022/08/25 08:48:25;;;;;;;21.40;3.70;;;;;;;36.76;25.81;100127.54;116822;1186;22929;-65
2022/08/25 08:51:32;;;;;;;16.60;4.10;;;;;;;36.93;25.44;100126.42;117100;1185;21857;-72
2022/08/25 08:54:03;;;;;;;22.60;3.60;;;;;;;37.00;24.38;100120.20;117080;1182;21962;-73
2022/08/25 08:56:42;;;;;;;18.30;3.80;;;;;;;37.02;25.02;100122.55;117137;1186;21968;-72
2022/08/25 08:59:20;;;;;;;17.00;3.60;;;;;;;37.24;25.13;100117.03;117164;1186;21857;-73
2022/08/25 09:01:51;;;;;;;19.20;3.70;;;;;;;37.48;24.69;100110.05;117265;1186;21930;-73
2022/08/25 09:04:26;;;;;;;15.40;3.30;;;;;;;37.60;24.43;100107.63;117254;1183;21875;-64
2022/08/25 09:06:54;;;;;;;16.50;3.50;;;;;;;37.71;24.34;100110.13;117238;1182;22614;-71
2022/08/25 09:09:30;;;;;;;10.40;2.60;;;;;;;37.89;24.20;100110.73;117225;1185;22924;-64
2022/08/25 09:12:11;;;;;;;18.10;3.30;;;;;;;38.10;23.81;100104.27;117262;1186;21850;-73
2022/08/25 09:15:09;;;;;;;16.40;2.90;;;;;;;38.37;23.72;100101.45;117260;1186;22924;-72
2022/08/25 09:17:58;;;;;;;5.80;1.90;;;;;;;38.57;23.04;100104.41;117077;1189;21897;-65
2022/08/25 09:20:47;;;;;;;9.90;2.40;;;;;;;38.56;23.28;100096.66;117391;1186;21889;-74
2022/08/25 09:23:38;;;;;;;10.10;1.90;;;;;;;38.56;22.93;100095.73;117288;1186;23003;-72
2022/08/25 09:26:30;;;;;;;14.60;2.20;;;;;;;38.51;22.75;100088.28;117146;1189;22334;-65
2022/08/25 09:29:20;;;;;;;15.60;2.50;;;;;;;38.65;22.94;100086.33;117265;1186;23011;-61
2022/08/25 09:31:47;;;;;;;5.10;1.60;;;;;;;38.92;22.50;100079.88;117312;1186;22913;-62
2022/08/25 09:34:19;;;;;;;11.00;1.70;;;;;;;39.00;22.15;100076.61;117217;1186;21895;-61
2022/08/25 09:36:49;;;;;;;9.70;2.10;;;;;;;38.94;22.02;100065.99;117070;1183;22625;-69
2022/08/25 09:39:18;;;;;;;14.30;2.80;;;;;;;38.93;21.52;100059.31;117293;1186;21907;-60
2022/08/25 09:42:07;;;;;;;9.10;2.20;;;;;;;39.01;21.57;100060.48;117259;1186;21852;-61
2022/08/25 09:44:42;;;;;;;11.10;2.50;;;;;;;39.08;21.22;100053.40;117272;1186;21860;-61
2022/08/25 09:47:22;;;;;;;9.60;2.20;;;;;;;39.06;21.31;100046.14;117309;1185;21926;-66
2022/08/25 09:50:00;;;;;;;9.50;2.50;;;;;;;39.04;20.70;100044.31;117226;1182;22895;-68
2022/08/25 09:52:36;;;;;;;9.30;1.80;;;;;;;38.93;20.49;100044.88;117283;1182;22093;-62
2022/08/25 09:55:03;;;;;;;6.50;2.00;;;;;;;38.88;21.05;100040.48;117258;1185;21853;-61
2022/08/25 09:57:32;;;;;;;5.80;2.20;;;;;;;38.97;20.83;100044.12;117350;1185;22957;-63
2022/08/25 10:00:17;;;;;;;10.10;2.30;;;;;;;39.05;20.84;100045.92;117207;1189;21859;-62
2022/08/25 10:02:59;;;;;;;7.00;1.70;;;;;;;39.31;20.85;100046.91;117273;1186;21847;-62
2022/08/25 10:05:34;;;;;;;5.30;1.80;;;;;;;39.68;20.50;100045.42;117255;1186;23570;-64
2022/08/25 10:08:09;;;;;;;19.60;2.60;;;;;;;39.89;20.25;100037.32;117187;1186;24167;-61
2022/08/25 10:10:44;;;;;;;8.80;1.80;;;;;;;40.09;20.43;100041.59;117186;1186;22938;-62
2022/08/25 10:13:17;;;;;;;9.50;1.90;;;;;;;40.28;20.39;100044.08;117194;1186;23446;-63
2022/08/25 10:16:07;;;;;;;8.70;2.00;;;;;;;40.36;20.16;100039.31;117107;1186;21848;-62
2022/08/25 10:19:08;;;;;;;8.50;2.20;;;;;;;40.39;19.81;100041.91;117168;1186;21858;-63
2022/08/25 10:21:38;;;;;;;13.20;2.10;;;;;;;40.37;19.40;100036.04;117044;1187;22697;-63
2022/08/25 10:24:06;;;;;;;10.50;2.20;;;;;;;40.30;19.60;100040.24;118107;1182;21866;-62
2022/08/25 10:26:43;;;;;;;7.50;1.60;;;;;;;40.33;20.17;100037.02;117094;1190;21918;-64
2022/08/25 10:29:18;;;;;;;6.50;1.60;;;;;;;40.47;19.95;100037.64;117192;1189;21888;-63
2022/08/25 10:31:55;;;;;;;8.70;1.70;;;;;;;40.55;19.36;100034.05;117225;1185;21899;-64
2022/08/25 10:34:49;;;;;;;8.00;1.70;;;;;;;40.52;19.56;100032.23;117101;1186;21869;-70
2022/08/25 10:37:27;;;;;;;7.20;1.70;;;;;;;40.68;19.15;100033.66;117151;1188;21857;-62
2022/08/25 10:40:01;;;;;;;6.00;1.50;;;;;;;40.97;18.84;100030.45;117198;1186;21930;-62
2022/08/25 10:43:01;;;;;;;15.10;2.10;;;;;;;41.09;18.41;100026.00;117267;1184;21930;-72
2022/08/25 10:45:41;;;;;;;8.80;1.50;;;;;;;41.20;19.46;100029.80;117181;1186;21848;-62
2022/08/25 10:48:12;;;;;;;;;;;;;;;41.35;19.33;100025.28;117110;1188;21842;-69
2022/08/25 10:50:43;;;;;;;8.70;1.90;;;;;;;41.47;18.77;100027.33;117201;1188;22933;-61
2022/08/25 10:53:35;;;;;;;5.20;2.20;;;;;;;41.38;18.77;100024.80;117333;1188;21870;-71
2022/08/25 10:56:20;;;;;;;4.10;1.50;;;;;;;41.38;19.03;100022.39;117245;1182;23589;-62
2022/08/25 10:59:06;;;;;;;10.40;2.20;;;;;;;41.40;18.94;100020.54;117136;1186;21879;-62
2022/08/25 11:01:51;;;;;;;6.20;1.80;;;;;;;41.53;18.93;100024.03;117340;1186;21857;-71
2022/08/25 11:04:28;;;;;;;9.30;1.70;;;;;;;41.57;18.66;100024.80;117189;1182;23455;-63
2022/08/25 11:07:47;;;;;;;9.10;1.80;;;;;;;41.48;18.53;100020.05;117252;1186;23345;-71
2022/08/25 11:10:26;;;;;;;8.20;2.10;;;;;;;41.41;18.65;100016.84;117179;1189;22619;-71
2022/08/25 11:12:56;;;;;;;12.20;2.00;;;;;;;41.47;18.52;100013.91;117313;1186;21858;-70
2022/08/25 11:15:24;;;;;;;7.70;1.60;;;;;;;41.59;18.31;100010.54;117109;1187;22937;-61
2022/08/25 11:18:04;;;;;;;7.80;1.90;;;;;;;41.71;18.32;100003.11;117306;1182;23759;-68
2022/08/25 11:21:21;;;;;;;19.00;2.40;;;;;;;41.80;18.27;100005.70;117193;1186;23560;-70
2022/08/25 11:23:55;;;;;;;12.40;2.00;;;;;;;41.96;18.38;100004.66;117314;1185;22252;-69
2022/08/25 11:26:28;;;;;;;9.10;2.30;;;;;;;42.10;18.12;100004.91;117295;1185;21860;-70
2022/08/25 11:29:18;;;;;;;6.70;1.80;;;;;;;42.11;17.88;100000.45;117184;1182;21887;-63
2022/08/25 11:31:47;;;;;;;9.10;1.90;;;;;;;42.12;18.07;99988.27;117068;1185;21914;-71
2022/08/25 11:34:19;;;;;;;13.20;2.00;;;;;;;42.25;18.08;99992.35;117271;1187;22163;-71
2022/08/25 11:36:59;;;;;;;5.30;1.60;;;;;;;42.35;17.73;99987.77;117365;1182;23491;-71
2022/08/25 11:39:34;;;;;;;12.90;2.30;;;;;;;42.24;17.70;99990.12;117271;1182;21860;-72
2022/08/25 11:42:22;;;;;;;5.70;1.90;;;;;;;42.10;17.61;99990.05;117308;1185;21858;-64
2022/08/25 11:44:51;;;;;;;6.80;2.10;;;;;;;41.99;17.71;99991.15;117255;1182;21865;-62
2022/08/25 11:47:32;;;;;;;10.40;1.80;;;;;;;42.04;17.56;99991.39;117292;1182;22985;-62